Time;durP1;ratioP1;P1;durP2;ratioP2;P2;SDS_P1;SDS_P2;PMS_P1;PMS_P2;Temp;Humidity;BMP_temperature;BMP_pressure;BME280_temperature;BME280_humidity;BME280_pressure;Samples;Min_cycle;Max_cycle;Signal;HPM_P1;HPM_P2
2023/05/26 00:01:52;;;;;;;22.50;8.40;;;9.30;99.90;;;;;;5134281;27;20122;-66
2023/05/26 00:04:18;;;;;;;18.15;7.28;;;9.20;99.90;;;;;;5134615;27;20043;-66
2023/05/26 00:06:46;;;;;;;19.20;7.90;;;9.20;99.90;;;;;;5134219;27;20057;-66
2023/05/26 00:09:12;;;;;;;20.90;7.38;;;9.20;99.90;;;;;;5133166;27;20047;-66
2023/05/26 00:11:38;;;;;;;19.65;8.10;;;9.10;99.90;;;;;;5133043;27;20129;-65
2023/05/26 00:14:04;;;;;;;14.38;7.00;;;9.10;99.90;;;;;;5134165;27;20079;-65
2023/05/26 00:16:30;;;;;;;17.23;7.25;;;9.20;99.90;;;;;;5133470;27;20058;-65
2023/05/26 00:18:55;;;;;;;20.52;8.25;;;9.10;99.90;;;;;;5134373;27;20051;-65
2023/05/26 00:21:21;;;;;;;16.58;7.10;;;9.10;99.90;;;;;;5132870;27;20099;-66
2023/05/26 00:23:47;;;;;;;14.45;6.82;;;9.10;99.90;;;;;;5134450;27;20047;-66
2023/05/26 00:26:13;;;;;;;17.38;7.15;;;9.10;99.90;;;;;;5134374;27;20047;-66
2023/05/26 00:28:38;;;;;;;31.83;8.80;;;9.10;99.90;;;;;;5116057;27;20481;-66
2023/05/26 00:31:04;;;;;;;21.25;6.85;;;9.10;99.90;;;;;;5134157;27;20082;-65
2023/05/26 00:33:30;;;;;;;23.10;7.32;;;9.10;99.90;;;;;;5132555;27;20479;-65
2023/05/26 00:35:55;;;;;;;15.00;6.93;;;9.10;99.90;;;;;;5132496;27;20059;-65
2023/05/26 00:38:21;;;;;;;20.17;7.88;;;9.10;99.90;;;;;;5133729;27;20064;-66
2023/05/26 00:40:47;;;;;;;16.85;6.63;;;9.10;99.90;;;;;;5134247;27;20054;-66
2023/05/26 00:43:13;;;;;;;21.13;8.27;;;9.10;99.90;;;;;;5133642;27;20051;-66
2023/05/26 00:45:38;;;;;;;20.90;7.75;;;9.10;99.90;;;;;;5134104;27;20485;-67
2023/05/26 00:48:05;;;;;;;21.08;7.45;;;9.10;99.90;;;;;;5133818;27;20059;-65
2023/05/26 00:50:31;;;;;;;16.63;6.38;;;9.10;99.90;;;;;;5132154;27;20513;-65
2023/05/26 00:52:58;;;;;;;14.65;7.28;;;9.10;99.90;;;;;;5133502;27;20047;-65
2023/05/26 00:55:24;;;;;;;21.80;8.32;;;9.10;99.90;;;;;;5133580;27;20160;-67
2023/05/26 00:57:50;;;;;;;18.48;8.48;;;9.10;99.90;;;;;;5132750;27;20100;-65
2023/05/26 01:00:17;;;;;;;19.60;7.30;;;9.00;99.90;;;;;;5133663;27;20039;-66
2023/05/26 01:02:46;;;;;;;15.55;7.35;;;9.00;99.90;;;;;;5132233;27;20096;-65
2023/05/26 01:05:15;;;;;;;21.17;8.93;;;9.00;99.90;;;;;;5133387;27;20051;-66
2023/05/26 01:07:42;;;;;;;23.50;8.25;;;9.00;99.90;;;;;;5133610;27;20059;-64
2023/05/26 01:10:08;;;;;;;24.55;7.43;;;8.90;99.90;;;;;;5134678;27;20112;-65
2023/05/26 01:12:56;;;;;;;16.33;8.10;;;8.90;99.90;;;;;;5137692;27;20053;-65
2023/05/26 01:15:34;;;;;;;23.02;8.63;;;8.90;99.90;;;;;;5137628;27;20090;-65
2023/05/26 01:18:10;;;;;;;20.42;8.18;;;8.90;99.90;;;;;;5137508;27;20506;-66
2023/05/26 01:20:45;;;;;;;19.55;6.28;;;8.80;99.90;;;;;;5137971;27;20039;-65
2023/05/26 01:23:25;;;;;;;22.83;8.20;;;9.30;99.90;;;;;;5137971;27;20053;-65
2023/05/26 01:26:03;;;;;;;13.45;6.18;;;8.90;99.90;;;;;;5137967;27;20047;-64
2023/05/26 01:28:29;;;;;;;26.85;8.70;;;8.80;99.90;;;;;;5137351;27;20043;-66
2023/05/26 01:30:57;;;;;;;19.67;7.38;;;8.80;99.90;;;;;;5135796;27;20535;-65
2023/05/26 01:33:23;;;;;;;19.92;7.80;;;8.80;99.90;;;;;;5137704;27;20043;-65
2023/05/26 01:35:48;;;;;;;22.67;7.65;;;8.80;99.90;;;;;;5141537;27;20053;-66
2023/05/26 01:38:15;;;;;;;14.02;6.78;;;8.80;99.90;;;;;;5139374;27;20043;-66
2023/05/26 01:40:43;;;;;;;22.77;9.70;;;8.80;99.90;;;;;;5157936;27;20125;-65
2023/05/26 01:43:26;;;;;;;21.27;7.47;;;8.80;99.90;;;;;;5158029;27;20039;-66
2023/05/26 01:46:02;;;;;;;19.45;7.70;;;8.80;99.90;;;;;;5158554;27;20126;-66
2023/05/26 01:48:31;;;;;;;19.08;8.07;;;8.70;99.90;;;;;;5158003;27;20085;-65
2023/05/26 01:50:58;;;;;;;19.77;7.45;;;8.70;99.90;;;;;;5157680;27;20126;-66
2023/05/26 01:53:29;;;;;;;17.88;7.63;;;8.70;99.90;;;;;;5157591;27;20168;-65
2023/05/26 01:55:58;;;;;;;18.80;7.95;;;8.70;99.90;;;;;;5158259;27;20076;-65
2023/05/26 01:58:25;;;;;;;16.10;5.45;;;8.70;99.90;;;;;;5157773;27;20054;-65
2023/05/26 02:00:54;;;;;;;27.67;7.38;;;8.60;99.90;;;;;;5138959;27;20045;-65
2023/05/26 02:03:21;;;;;;;19.90;6.78;;;8.60;99.90;;;;;;5157670;27;20053;-64
2023/05/26 02:05:47;;;;;;;18.67;7.88;;;8.60;99.90;;;;;;5139014;27;20074;-66
2023/05/26 02:08:13;;;;;;;20.45;7.82;;;8.60;99.90;;;;;;5157751;27;20066;-64
2023/05/26 02:10:39;;;;;;;14.65;6.80;;;8.60;99.90;;;;;;5121559;27;20078;-65
2023/05/26 02:13:06;;;;;;;22.65;8.13;;;8.60;99.90;;;;;;5157676;27;20435;-66
2023/05/26 02:15:32;;;;;;;19.33;7.68;;;8.60;99.90;;;;;;5157114;27;20092;-66
2023/05/26 02:17:58;;;;;;;15.82;8.25;;;8.60;99.90;;;;;;5157105;27;20055;-65
2023/05/26 02:20:24;;;;;;;24.65;7.80;;;8.60;99.90;;;;;;5157239;27;20050;-65
2023/05/26 02:22:50;;;;;;;20.60;7.85;;;8.60;99.90;;;;;;5157468;27;20058;-65
2023/05/26 02:25:16;;;;;;;21.50;8.77;;;8.50;99.90;;;;;;5157348;27;20047;-66
2023/05/26 02:27:42;;;;;;;15.02;7.25;;;8.50;99.90;;;;;;5138383;27;20042;-74
2023/05/26 02:30:08;;;;;;;16.58;7.30;;;8.50;99.90;;;;;;5156626;27;20043;-74
2023/05/26 02:32:36;;;;;;;22.33;7.03;;;8.50;99.90;;;;;;5139116;27;20069;-74
2023/05/26 02:35:06;;;;;;;21.88;7.55;;;8.50;99.90;;;;;;5138408;27;20111;-75
2023/05/26 02:37:35;;;;;;;25.58;7.47;;;8.50;99.90;;;;;;5138406;27;20055;-75
2023/05/26 02:40:00;;;;;;;18.17;7.28;;;8.50;99.90;;;;;;5138262;27;20049;-74
2023/05/26 02:42:57;;;;;;;19.50;8.65;;;8.50;99.90;;;;;;5156493;27;20042;-74
2023/05/26 02:45:27;;;;;;;15.02;6.82;;;8.50;99.90;;;;;;5120469;27;20498;-75
2023/05/26 02:47:59;;;;;;;11.73;5.75;;;8.50;99.90;;;;;;5138016;27;20043;-74
2023/05/26 02:50:25;;;;;;;26.65;7.82;;;8.50;99.90;;;;;;5122021;27;20046;-74
2023/05/26 02:52:51;;;;;;;18.73;7.13;;;8.50;99.90;;;;;;5138917;27;20071;-74
2023/05/26 02:55:18;;;;;;;20.25;7.97;;;8.50;99.90;;;;;;5138499;27;20466;-74
2023/05/26 02:57:44;;;;;;;14.95;8.80;;;8.50;99.90;;;;;;5156348;27;20051;-73
2023/05/26 03:00:11;;;;;;;13.18;5.03;;;8.50;99.90;;;;;;5138807;27;20058;-74
2023/05/26 03:02:37;;;;;;;18.30;7.25;;;8.50;99.90;;;;;;5156677;27;20447;-74
2023/05/26 03:05:05;;;;;;;16.48;6.60;;;8.50;99.90;;;;;;5156262;27;20125;-74
2023/05/26 03:07:31;;;;;;;16.38;7.63;;;8.40;99.90;;;;;;5137917;27;20047;-73
2023/05/26 03:09:56;;;;;;;21.15;8.25;;;8.40;99.90;;;;;;5155972;27;20520;-75
2023/05/26 03:12:22;;;;;;;21.92;7.60;;;8.30;99.90;;;;;;5137439;27;20052;-74
2023/05/26 03:14:49;;;;;;;12.10;5.57;;;8.30;99.90;;;;;;5156532;27;20068;-74
2023/05/26 03:17:16;;;;;;;16.50;8.27;;;8.20;99.90;;;;;;5138308;27;20473;-74
2023/05/26 03:19:42;;;;;;;12.55;5.00;;;8.20;99.90;;;;;;5121100;27;20093;-76
2023/05/26 03:22:08;;;;;;;16.88;6.88;;;8.10;99.90;;;;;;5155936;27;20042;-74
2023/05/26 03:24:35;;;;;;;14.35;5.63;;;8.10;99.90;;;;;;5156596;27;20111;-74
2023/05/26 03:27:01;;;;;;;15.18;6.80;;;8.10;99.90;;;;;;5156279;27;20451;-75
2023/05/26 03:29:29;;;;;;;13.02;6.45;;;8.00;99.90;;;;;;5137786;27;20087;-74
2023/05/26 03:31:55;;;;;;;14.45;6.22;;;8.00;99.90;;;;;;5137921;27;20524;-73
2023/05/26 03:34:21;;;;;;;15.20;6.10;;;8.00;99.90;;;;;;5155045;27;20046;-74
2023/05/26 03:36:48;;;;;;;11.45;5.85;;;7.90;99.90;;;;;;5155266;27;20493;-74
2023/05/26 03:39:15;;;;;;;17.10;6.00;;;7.80;99.90;;;;;;5156006;27;20053;-74
2023/05/26 03:41:41;;;;;;;17.00;6.07;;;7.80;99.90;;;;;;5137098;27;20172;-74
2023/05/26 03:44:07;;;;;;;19.70;5.60;;;7.80;99.90;;;;;;5136918;27;20086;-74
2023/05/26 03:46:32;;;;;;;18.25;7.13;;;7.70;99.90;;;;;;5137699;27;20043;-74
2023/05/26 03:48:58;;;;;;;23.33;7.53;;;7.70;99.90;;;;;;5155173;27;20401;-73
2023/05/26 03:51:24;;;;;;;16.80;6.32;;;7.70;99.90;;;;;;5136868;27;20050;-74
2023/05/26 03:53:50;;;;;;;14.55;6.45;;;7.70;99.90;;;;;;5155409;27;20121;-74
2023/05/26 03:56:16;;;;;;;22.67;7.50;;;7.70;99.90;;;;;;5136515;27;20468;-73
2023/05/26 03:58:41;;;;;;;15.18;6.82;;;7.70;99.90;;;;;;5136997;27;20062;-74
2023/05/26 04:01:07;;;;;;;14.25;6.35;;;7.70;99.90;;;;;;5154981;27;20111;-75
2023/05/26 04:03:33;;;;;;;21.85;7.57;;;7.80;99.90;;;;;;5137321;27;20058;-74
2023/05/26 04:06:00;;;;;;;16.50;7.80;;;7.70;99.90;;;;;;5154698;27;20042;-74
2023/05/26 04:08:26;;;;;;;24.27;7.47;;;7.80;99.90;;;;;;5137068;27;20095;-74
2023/05/26 04:10:52;;;;;;;15.02;6.53;;;7.80;99.90;;;;;;5135898;27;20051;-74
2023/05/26 04:13:18;;;;;;;23.20;8.68;;;7.90;99.90;;;;;;5136740;27;20042;-74
2023/05/26 04:15:44;;;;;;;21.05;7.80;;;8.00;99.90;;;;;;5154868;27;20464;-73
2023/05/26 04:18:10;;;;;;;21.30;7.40;;;8.00;99.90;;;;;;5136588;27;20050;-74
2023/05/26 04:20:36;;;;;;;17.30;6.60;;;8.10;99.90;;;;;;5136206;27;20050;-73
2023/05/26 04:23:02;;;;;;;16.88;6.30;;;8.20;99.90;;;;;;5154723;27;20549;-74
2023/05/26 04:25:28;;;;;;;20.83;7.88;;;8.20;99.90;;;;;;5135760;27;20074;-73
2023/05/26 04:27:56;;;;;;;17.83;7.75;;;8.30;99.90;;;;;;5119122;27;20075;-73
2023/05/26 04:30:23;;;;;;;19.58;8.07;;;8.40;99.90;;;;;;5136195;27;20054;-74
2023/05/26 04:32:49;;;;;;;16.33;7.47;;;8.40;99.90;;;;;;5155172;27;20110;-74
2023/05/26 04:35:15;;;;;;;17.73;7.45;;;8.50;99.90;;;;;;5154477;27;20043;-74
2023/05/26 04:37:42;;;;;;;14.50;6.10;;;8.50;99.90;;;;;;5154625;27;20058;-74
2023/05/26 04:40:09;;;;;;;19.70;7.40;;;8.60;99.90;;;;;;5136242;27;20424;-75
2023/05/26 04:42:36;;;;;;;20.13;8.73;;;8.60;99.90;;;;;;5136535;27;20114;-74
2023/05/26 04:45:03;;;;;;;26.10;7.95;;;8.70;99.90;;;;;;5154219;27;20054;-76
2023/05/26 04:47:32;;;;;;;14.82;5.72;;;8.70;99.90;;;;;;5135603;27;20472;-75
2023/05/26 04:49:59;;;;;;;16.52;6.85;;;8.80;99.90;;;;;;5154627;27;20071;-75
2023/05/26 04:52:26;;;;;;;19.80;7.55;;;8.80;99.90;;;;;;5135931;27;20051;-74
2023/05/26 04:54:52;;;;;;;17.55;7.70;;;8.90;99.90;;;;;;5135747;27;20126;-76
2023/05/26 04:57:18;;;;;;;23.00;8.23;;;9.00;99.90;;;;;;5154227;27;20543;-73
2023/05/26 04:59:44;;;;;;;18.15;8.05;;;9.10;99.90;;;;;;5136108;27;20047;-74
2023/05/26 05:02:10;;;;;;;20.75;6.00;;;9.20;99.90;;;;;;5135888;27;20114;-73
2023/05/26 05:04:36;;;;;;;20.00;8.98;;;9.20;99.90;;;;;;5154173;27;20104;-74
2023/05/26 05:07:02;;;;;;;20.80;8.02;;;9.30;99.90;;;;;;5154102;27;20050;-74
2023/05/26 05:09:28;;;;;;;20.40;7.13;;;9.40;99.90;;;;;;5154566;27;20050;-74
2023/05/26 05:11:53;;;;;;;17.85;7.57;;;9.60;99.90;;;;;;5135717;27;20050;-74
2023/05/26 05:14:20;;;;;;;18.80;7.10;;;9.70;99.90;;;;;;5136458;27;20039;-73
2023/05/26 05:16:46;;;;;;;28.98;8.40;;;9.80;99.90;;;;;;5137393;27;20045;-73
2023/05/26 05:19:12;;;;;;;22.95;8.07;;;9.90;99.90;;;;;;5137829;27;20043;-74
2023/05/26 05:21:37;;;;;;;21.27;7.13;;;9.90;99.90;;;;;;5155771;27;20470;-73
2023/05/26 05:24:03;;;;;;;21.27;7.05;;;10.00;99.90;;;;;;5155891;27;20079;-73
2023/05/26 05:26:29;;;;;;;16.02;6.97;;;10.10;99.90;;;;;;5155802;27;20365;-73
2023/05/26 05:28:55;;;;;;;15.80;7.35;;;10.20;99.90;;;;;;5154574;27;20505;-74
2023/05/26 05:31:21;;;;;;;19.00;7.85;;;10.30;99.90;;;;;;5154232;27;20046;-74
2023/05/26 05:33:46;;;;;;;19.17;6.70;;;10.30;99.90;;;;;;5154098;27;20553;-74
2023/05/26 05:36:12;;;;;;;18.88;7.43;;;10.40;99.90;;;;;;5153868;27;20467;-74
2023/05/26 05:38:38;;;;;;;15.95;7.10;;;10.40;99.90;;;;;;5153886;27;20095;-74
2023/05/26 05:41:03;;;;;;;24.08;8.55;;;10.50;99.90;;;;;;5154044;27;20082;-74
2023/05/26 05:43:29;;;;;;;19.00;7.28;;;10.50;99.90;;;;;;5153828;27;20515;-74
2023/05/26 05:45:55;;;;;;;24.42;8.63;;;10.60;99.90;;;;;;5118147;27;20031;-74
2023/05/26 05:48:20;;;;;;;22.15;7.13;;;10.70;99.90;;;;;;5134875;27;20053;-74
2023/05/26 05:50:46;;;;;;;21.67;7.57;;;10.90;99.90;;;;;;5154096;27;20047;-74
2023/05/26 05:53:12;;;;;;;17.00;7.07;;;10.90;99.90;;;;;;5153646;27;20495;-74
2023/05/26 05:55:38;;;;;;;16.33;7.22;;;10.90;99.90;;;;;;5135534;27;20047;-74
2023/05/26 05:58:04;;;;;;;14.48;7.43;;;11.00;99.90;;;;;;5157495;27;20047;-74
2023/05/26 06:00:30;;;;;;;23.88;7.65;;;11.00;99.90;;;;;;5157350;27;20061;-76
2023/05/26 06:02:56;;;;;;;17.80;6.93;;;11.00;99.90;;;;;;5122072;27;20054;-73
2023/05/26 06:05:22;;;;;;;19.40;7.28;;;11.00;99.90;;;;;;5157777;27;20038;-74
2023/05/26 06:07:48;;;;;;;23.85;7.68;;;11.10;99.90;;;;;;5157545;27;20485;-75
2023/05/26 06:10:13;;;;;;;19.83;7.75;;;11.20;99.90;;;;;;5156959;27;20042;-75
2023/05/26 06:12:39;;;;;;;19.02;7.40;;;11.20;99.90;;;;;;5138647;27;20045;-74
2023/05/26 06:15:05;;;;;;;18.05;6.97;;;11.10;99.90;;;;;;5157057;27;20038;-72
2023/05/26 06:17:31;;;;;;;18.63;7.13;;;11.10;99.90;;;;;;5122081;27;20047;-73
2023/05/26 06:19:57;;;;;;;19.73;7.53;;;11.10;99.90;;;;;;5156624;27;20039;-73
2023/05/26 06:22:22;;;;;;;24.25;7.82;;;11.20;99.90;;;;;;5121606;27;20133;-73
2023/05/26 06:24:48;;;;;;;17.13;6.97;;;11.20;99.90;;;;;;5156828;27;20058;-73
2023/05/26 06:27:14;;;;;;;22.33;7.68;;;11.30;99.90;;;;;;5138315;27;20514;-74
2023/05/26 06:29:40;;;;;;;11.60;5.35;;;11.40;99.90;;;;;;5156589;27;20066;-72
2023/05/26 06:32:06;;;;;;;16.20;6.70;;;11.40;99.90;;;;;;5156483;27;20045;-74
2023/05/26 06:34:31;;;;;;;15.98;6.70;;;11.50;99.90;;;;;;5156718;27;20046;-73
2023/05/26 06:36:57;;;;;;;16.48;6.00;;;11.60;99.90;;;;;;5156077;27;20571;-74
2023/05/26 06:39:24;;;;;;;23.58;6.60;;;11.60;99.90;;;;;;5138173;27;20380;-73
2023/05/26 06:41:50;;;;;;;19.58;7.18;;;11.70;99.90;;;;;;5138057;27;20089;-73
2023/05/26 06:44:16;;;;;;;21.38;5.95;;;11.70;99.90;;;;;;5156488;27;20038;-72
2023/05/26 06:46:41;;;;;;;19.55;6.53;;;11.70;99.90;;;;;;5137983;27;20051;-72
2023/05/26 06:49:07;;;;;;;16.98;6.15;;;11.70;99.90;;;;;;5156117;27;20034;-74
2023/05/26 06:51:33;;;;;;;22.77;6.35;;;12.40;99.90;;;;;;5156524;27;20050;-74
2023/05/26 06:53:58;;;;;;;18.90;6.25;;;12.90;99.90;;;;;;5156196;27;20532;-74
2023/05/26 06:56:26;;;;;;;19.52;6.30;;;13.00;99.90;;;;;;5137711;27;20053;-73
2023/05/26 06:58:52;;;;;;;16.67;6.20;;;13.40;99.90;;;;;;5156713;27;20176;-72
2023/05/26 07:01:17;;;;;;;13.45;5.80;;;13.80;99.90;;;;;;5137238;27;20510;-75
2023/05/26 07:03:43;;;;;;;17.48;5.32;;;14.80;99.90;;;;;;5137795;27;20110;-73
2023/05/26 07:06:09;;;;;;;10.45;4.68;;;15.70;99.90;;;;;;5156823;27;20107;-73
2023/05/26 07:08:34;;;;;;;17.92;5.13;;;16.10;99.90;;;;;;5155357;27;20039;-73
2023/05/26 07:11:00;;;;;;;15.70;5.47;;;16.30;98.40;;;;;;5156071;27;20077;-72
2023/05/26 07:13:26;;;;;;;13.10;4.60;;;16.50;99.40;;;;;;5156044;27;20046;-73
2023/05/26 07:15:52;;;;;;;7.47;4.07;;;16.90;99.90;;;;;;5156280;27;20039;-74
2023/05/26 07:18:17;;;;;;;12.50;4.15;;;17.20;96.80;;;;;;5120519;27;20125;-76
2023/05/26 07:20:43;;;;;;;11.88;4.28;;;17.50;98.90;;;;;;5155292;27;20050;-73
2023/05/26 07:23:09;;;;;;;14.10;4.20;;;17.40;95.40;;;;;;5155816;27;20091;-75
2023/05/26 07:25:35;;;;;;;9.85;3.38;;;17.00;96.30;;;;;;5155850;27;20039;-72
2023/05/26 07:28:00;;;;;;;11.00;4.10;;;16.80;94.00;;;;;;5137260;27;20038;-73
2023/05/26 07:30:26;;;;;;;10.27;3.53;;;16.50;92.90;;;;;;5155554;27;20146;-73
2023/05/26 07:32:54;;;;;;;8.60;4.40;;;17.00;95.00;;;;;;5155243;27;20507;-75
2023/05/26 07:35:20;;;;;;;11.23;3.90;;;17.20;94.70;;;;;;5119875;27;20376;-73
2023/05/26 07:37:46;;;;;;;11.00;4.38;;;17.20;93.20;;;;;;5156059;27;20051;-73
2023/05/26 07:40:12;;;;;;;9.73;4.90;;;17.30;93.40;;;;;;5155550;27;20034;-74
2023/05/26 07:42:38;;;;;;;7.68;3.50;;;17.50;94.60;;;;;;5155412;27;20046;-73
2023/05/26 07:45:04;;;;;;;6.35;3.53;;;17.70;91.10;;;;;;5119942;27;20423;-74
2023/05/26 07:47:31;;;;;;;8.50;4.10;;;17.30;92.30;;;;;;5137175;27;20051;-76
2023/05/26 07:50:00;;;;;;;9.90;3.90;;;17.40;92.50;;;;;;5136937;27;20039;-74
2023/05/26 07:52:26;;;;;;;8.80;4.03;;;17.60;91.30;;;;;;5137705;27;20062;-73
2023/05/26 07:54:52;;;;;;;9.75;3.58;;;17.60;90.90;;;;;;5137274;27;20047;-76
2023/05/26 07:57:18;;;;;;;9.68;3.83;;;17.50;92.00;;;;;;5136878;27;20052;-74
2023/05/26 07:59:44;;;;;;;9.50;3.83;;;18.10;93.30;;;;;;5136903;27;20050;-73
2023/05/26 08:02:10;;;;;;;10.50;4.03;;;18.20;92.10;;;;;;5154895;27;20049;-73
2023/05/26 08:04:37;;;;;;;10.35;3.90;;;18.30;92.20;;;;;;5136556;27;20503;-73
2023/05/26 08:07:03;;;;;;;9.60;3.67;;;18.20;92.10;;;;;;5155035;27;20050;-76
2023/05/26 08:09:29;;;;;;;9.23;3.50;;;18.30;91.50;;;;;;5154846;27;20121;-74
2023/05/26 08:11:54;;;;;;;11.25;4.32;;;18.70;92.40;;;;;;5136901;27;20082;-73
2023/05/26 08:14:22;;;;;;;9.27;3.60;;;19.30;92.30;;;;;;5154771;27;20093;-72
2023/05/26 08:16:48;;;;;;;6.82;3.58;;;19.00;92.00;;;;;;5136643;27;20082;-73
2023/05/26 08:19:14;;;;;;;7.30;3.92;;;18.70;91.50;;;;;;5135652;27;20045;-73
2023/05/26 08:21:39;;;;;;;11.10;3.63;;;18.60;91.80;;;;;;5136152;27;20045;-72
2023/05/26 08:24:05;;;;;;;9.07;4.13;;;18.50;90.00;;;;;;5136388;27;20042;-74
2023/05/26 08:26:31;;;;;;;10.25;3.88;;;18.80;91.80;;;;;;5155616;27;20117;-74
2023/05/26 08:28:56;;;;;;;8.07;3.38;;;18.40;91.20;;;;;;5156473;27;20042;-74
2023/05/26 08:31:22;;;;;;;7.10;3.70;;;18.50;90.90;;;;;;5156012;27;20167;-75
2023/05/26 08:33:48;;;;;;;9.85;3.50;;;18.50;90.60;;;;;;5155580;27;20046;-72
2023/05/26 08:36:14;;;;;;;10.68;3.67;;;19.00;90.20;;;;;;5136552;27;20062;-76
2023/05/26 08:38:40;;;;;;;10.10;3.70;;;18.90;91.00;;;;;;5154620;27;20090;-74
2023/05/26 08:41:07;;;;;;;7.35;3.17;;;19.20;90.50;;;;;;5154960;27;20046;-74
2023/05/26 08:43:42;;;;;;;12.00;4.30;;;19.80;90.90;;;;;;5154722;27;20126;-75
2023/05/26 08:46:10;;;;;;;8.95;3.75;;;20.10;86.40;;;;;;5154902;27;20480;-76
2023/05/26 08:48:37;;;;;;;7.47;3.20;;;19.80;89.90;;;;;;5119075;27;20115;-76
2023/05/26 08:51:07;;;;;;;6.68;3.15;;;19.70;86.40;;;;;;5136317;27;20035;-73
2023/05/26 08:53:32;;;;;;;9.65;3.50;;;19.40;89.50;;;;;;5136005;27;20424;-72
2023/05/26 08:56:00;;;;;;;9.70;3.63;;;19.60;86.40;;;;;;5154547;27;20038;-71
2023/05/26 08:58:26;;;;;;;8.50;3.05;;;19.50;89.90;;;;;;5154326;27;20046;-72
2023/05/26 09:00:53;;;;;;;9.05;3.85;;;19.30;86.80;;;;;;5136475;27;20074;-73
2023/05/26 09:03:19;;;;;;;7.18;3.10;;;19.30;86.00;;;;;;5154142;27;20050;-72
2023/05/26 09:05:45;;;;;;;7.28;3.42;;;19.30;87.80;;;;;;5154879;27;20125;-72
2023/05/26 09:08:12;;;;;;;8.20;4.18;;;18.20;87.20;;;;;;5153986;27;20047;-72
2023/05/26 09:10:38;;;;;;;7.78;3.22;;;18.50;87.00;;;;;;5135759;27;20126;-72
2023/05/26 09:13:05;;;;;;;9.63;3.75;;;18.80;88.30;;;;;;5135807;27;20134;-72
2023/05/26 09:15:31;;;;;;;8.43;3.97;;;18.80;87.90;;;;;;5135499;27;20047;-72
2023/05/26 09:18:30;;;;;;;8.63;2.97;;;19.20;89.00;;;;;;5153887;27;20542;-74
2023/05/26 09:20:56;;;;;;;8.73;4.15;;;19.20;87.10;;;;;;5080527;27;20103;-72
2023/05/26 09:23:22;;;;;;;6.07;3.47;;;18.90;87.30;;;;;;5154115;27;20051;-72
2023/05/26 09:25:50;;;;;;;7.18;3.00;;;19.10;88.10;;;;;;5135891;27;20074;-72
2023/05/26 09:28:16;;;;;;;8.90;3.88;;;19.10;85.80;;;;;;5135314;27;20046;-73
2023/05/26 09:30:45;;;;;;;8.02;3.08;;;17.90;86.20;;;;;;5135608;27;20498;-74
2023/05/26 09:33:18;;;;;;;8.82;3.97;;;17.80;87.20;;;;;;5139350;27;20058;-71
2023/05/26 09:35:48;;;;;;;10.18;3.47;;;17.30;88.40;;;;;;5157911;27;20082;-72
2023/05/26 09:38:16;;;;;;;8.23;3.63;;;17.70;89.30;;;;;;5138898;27;20440;-73
2023/05/26 09:40:43;;;;;;;10.57;3.88;;;17.80;89.10;;;;;;5157528;27;20102;-75
2023/05/26 09:43:09;;;;;;;9.95;3.40;;;17.80;87.50;;;;;;5157564;27;20057;-73
2023/05/26 09:45:36;;;;;;;9.63;3.63;;;18.40;87.20;;;;;;5157797;27;20053;-73
2023/05/26 09:48:07;;;;;;;10.32;3.85;;;17.70;88.70;;;;;;5138968;27;20042;-74
2023/05/26 09:50:34;;;;;;;9.13;3.47;;;18.30;90.10;;;;;;5157724;27;20459;-72
2023/05/26 09:53:02;;;;;;;7.90;3.58;;;19.00;90.00;;;;;;5157690;27;20042;-71
2023/05/26 09:55:32;;;;;;;8.50;3.22;;;18.40;86.40;;;;;;5158029;27;20129;-74
2023/05/26 09:58:09;;;;;;;6.95;3.55;;;18.10;88.90;;;;;;5157534;27;20138;-73
2023/05/26 10:00:36;;;;;;;10.18;4.18;;;17.10;88.20;;;;;;5139052;27;20047;-75
2023/05/26 10:03:05;;;;;;;9.60;3.40;;;17.60;90.40;;;;;;5139510;27;20424;-75
2023/05/26 10:05:38;;;;;;;9.75;3.42;;;17.80;89.50;;;;;;5157933;27;20075;-75
2023/05/26 10:08:05;;;;;;;8.82;3.45;;;18.00;89.90;;;;;;5157360;27;20054;-74
2023/05/26 10:10:33;;;;;;;7.53;3.28;;;18.50;90.20;;;;;;5157455;27;20047;-74
2023/05/26 10:12:59;;;;;;;10.35;3.22;;;18.00;88.60;;;;;;5157184;27;20050;-75
2023/05/26 10:15:25;;;;;;;8.02;3.30;;;17.90;89.30;;;;;;5157665;27;20051;-74
2023/05/26 10:17:51;;;;;;;7.65;4.05;;;18.30;89.20;;;;;;5156914;27;20391;-76
2023/05/26 10:20:18;;;;;;;10.98;3.45;;;18.40;88.60;;;;;;5157085;27;20047;-74
2023/05/26 10:23:04;;;;;;;6.40;3.40;;;17.90;88.90;;;;;;5157203;27;20118;-72
2023/05/26 10:25:47;;;;;;;9.20;4.03;;;18.10;88.10;;;;;;5157114;27;20122;-74
2023/05/26 10:28:32;;;;;;;9.32;4.47;;;18.00;88.60;;;;;;5157116;27;20046;-75
2023/05/26 10:31:00;;;;;;;9.90;3.78;;;18.30;90.00;;;;;;5138730;27;20487;-74
2023/05/26 10:33:43;;;;;;;6.80;3.40;;;18.90;90.40;;;;;;5138408;27;20051;-74
2023/05/26 10:36:14;;;;;;;7.40;3.60;;;18.20;87.40;;;;;;5156796;27;20063;-74
2023/05/26 10:38:47;;;;;;;13.00;3.33;;;18.60;90.00;;;;;;5139286;27;20062;-72
2023/05/26 10:41:28;;;;;;;;;;;17.90;88.20;;;;;;5157589;27;20047;-73
2023/05/26 10:43:55;;;;;;;8.50;3.70;;;17.70;88.90;;;;;;5156920;27;19923;-73
2023/05/26 10:46:21;;;;;;;10.13;3.13;;;17.70;90.10;;;;;;5138309;27;20047;-73
2023/05/26 10:48:57;;;;;;;7.38;3.13;;;17.40;89.30;;;;;;5157165;27;20050;-76
2023/05/26 10:51:29;;;;;;;12.43;3.75;;;17.40;90.30;;;;;;5157054;27;20084;-75
2023/05/26 10:53:56;;;;;;;6.75;3.67;;;17.40;90.30;;;;;;5138832;27;20399;-74
2023/05/26 10:56:42;;;;;;;10.10;4.55;;;16.90;89.50;;;;;;5120538;27;20057;-74
2023/05/26 10:59:18;;;;;;;11.38;3.65;;;17.10;90.30;;;;;;5156854;27;20103;-75
2023/05/26 11:01:52;;;;;;;10.07;3.75;;;17.30;90.80;;;;;;5156559;27;20133;-74
2023/05/26 11:04:18;;;;;;;9.18;3.83;;;17.30;90.30;;;;;;5156285;27;20047;-73
2023/05/26 11:06:48;;;;;;;13.82;4.38;;;16.90;89.90;;;;;;5156444;27;20460;-74
2023/05/26 11:09:15;;;;;;;7.55;3.67;;;16.90;90.60;;;;;;5156162;27;20095;-74
2023/05/26 11:11:55;;;;;;;11.40;4.55;;;17.10;90.40;;;;;;5156317;27;20116;-73
2023/05/26 11:14:29;;;;;;;8.85;3.95;;;17.30;90.20;;;;;;5156185;27;20049;-74
2023/05/26 11:16:57;;;;;;;11.02;4.05;;;17.40;89.10;;;;;;5138499;27;20070;-73
2023/05/26 11:19:33;;;;;;;11.27;4.00;;;17.50;90.10;;;;;;5156410;27;20039;-74
2023/05/26 11:22:00;;;;;;;10.30;3.80;;;17.30;90.60;;;;;;5156081;27;20050;-74
2023/05/26 11:24:26;;;;;;;11.10;4.53;;;17.50;90.20;;;;;;5156467;27;20043;-74
2023/05/26 11:26:51;;;;;;;9.48;3.80;;;17.10;90.20;;;;;;5155822;27;20058;-73
2023/05/26 11:29:24;;;;;;;9.13;3.92;;;17.50;90.30;;;;;;5155887;27;20042;-74
2023/05/26 11:31:51;;;;;;;9.65;4.25;;;17.40;90.10;;;;;;5155747;27;20479;-74
2023/05/26 11:34:16;;;;;;;8.65;3.90;;;17.40;90.00;;;;;;5156320;27;20046;-74
2023/05/26 11:36:51;;;;;;;12.18;4.72;;;17.50;89.90;;;;;;5155735;27;20525;-75
2023/05/26 11:39:17;;;;;;;8.63;5.47;;;17.40;90.10;;;;;;5158993;27;20045;-74
2023/05/26 11:41:44;;;;;;;11.10;4.38;;;17.40;90.50;;;;;;5157512;27;20047;-75
2023/05/26 11:44:13;;;;;;;12.77;4.63;;;17.60;90.20;;;;;;5156848;27;20122;-73
2023/05/26 11:46:40;;;;;;;15.85;5.70;;;17.40;90.60;;;;;;5121253;27;20368;-72
2023/05/26 11:49:13;;;;;;;12.23;5.15;;;17.30;91.30;;;;;;5137023;27;20054;-73
2023/05/26 11:51:44;;;;;;;;;;;17.10;91.70;;;;;;5137641;27;20137;-74
2023/05/26 11:54:10;;;;;;;12.77;5.82;;;16.90;91.90;;;;;;5154858;27;19966;-75
2023/05/26 11:56:36;;;;;;;11.40;5.47;;;17.00;91.70;;;;;;5103648;27;20054;-75
2023/05/26 11:59:03;;;;;;;11.93;4.68;;;17.20;91.50;;;;;;5155542;27;20046;-74
2023/05/26 12:01:31;;;;;;;17.83;5.93;;;17.20;91.20;;;;;;5155463;27;20053;-73
2023/05/26 12:04:01;;;;;;;13.02;5.80;;;17.40;91.40;;;;;;5136527;27;20426;-75
2023/05/26 12:06:31;;;;;;;10.73;5.20;;;17.20;91.60;;;;;;5155434;27;20035;-74
2023/05/26 12:09:03;;;;;;;14.07;5.32;;;16.90;91.10;;;;;;5136346;27;20049;-74
2023/05/26 12:11:29;;;;;;;13.35;4.95;;;17.10;91.30;;;;;;5154875;27;20053;-74
2023/05/26 12:14:14;;;;;;;12.27;5.07;;;17.40;91.70;;;;;;5154846;27;20042;-72
2023/05/26 12:16:47;;;;;;;8.85;4.93;;;17.00;91.70;;;;;;5154911;27;20047;-75
2023/05/26 12:19:19;;;;;;;12.57;5.75;;;17.10;92.00;;;;;;5154599;27;20098;-73
2023/05/26 12:21:47;;;;;;;12.15;5.78;;;17.20;91.60;;;;;;5136801;27;20074;-73
2023/05/26 12:24:14;;;;;;;13.18;4.38;;;17.40;91.30;;;;;;5154888;27;20043;-75
2023/05/26 12:26:40;;;;;;;9.55;4.90;;;17.30;91.30;;;;;;5154418;27;20046;-73
2023/05/26 12:29:16;;;;;;;11.32;5.28;;;17.10;91.30;;;;;;5135834;27;20469;-75
2023/05/26 12:31:46;;;;;;;8.90;5.38;;;17.00;91.40;;;;;;5136002;27;20486;-74
2023/05/26 12:34:21;;;;;;;9.60;5.57;;;16.90;91.30;;;;;;5154199;27;20043;-74
2023/05/26 12:36:47;;;;;;;12.93;5.25;;;16.70;91.20;;;;;;5135607;27;20054;-72
2023/05/26 12:39:14;;;;;;;10.05;4.97;;;16.70;91.00;;;;;;5154056;27;20043;-75
2023/05/26 12:41:41;;;;;;;10.32;4.63;;;16.70;91.50;;;;;;5153803;27;20174;-74
2023/05/26 12:44:07;;;;;;;11.90;4.63;;;16.80;91.50;;;;;;5135920;27;20050;-75
2023/05/26 12:46:34;;;;;;;11.25;5.03;;;16.50;91.30;;;;;;5135685;27;20113;-74